Time;durP1;ratioP1;P1;durP2;ratioP2;P2;SDS_P1;SDS_P2;PMS_P1;PMS_P2;Temp;Humidity;BMP_temperature;BMP_pressure;BME280_temperature;BME280_humidity;BME280_pressure;Samples;Min_cycle;Max_cycle;Signal;HPM_P1;HPM_P2
2022/06/02 00:01:20;;;;;;;17.13;9.27;;;;;;;9.28;88.09;101880.16;5050974;28;20102;-65
2022/06/02 00:04:00;;;;;;;17.05;8.80;;;;;;;9.28;87.80;101880.16;5050784;28;20546;-65
2022/06/02 00:06:37;;;;;;;17.10;9.77;;;;;;;9.28;88.09;101874.81;5050455;28;20029;-65
2022/06/02 00:09:11;;;;;;;16.35;8.57;;;;;;;9.26;88.72;101879.47;5050315;28;20072;-64
2022/06/02 00:11:59;;;;;;;17.30;9.52;;;;;;;9.24;88.37;101889.44;5050799;28;20025;-65
2022/06/02 00:14:56;;;;;;;18.13;9.18;;;;;;;9.21;88.88;101894.09;5050409;28;20032;-65
2022/06/02 00:17:43;;;;;;;15.82;9.02;;;;;;;9.21;88.59;101894.09;5032775;28;20049;-65
2022/06/02 00:20:20;;;;;;;16.40;9.43;;;;;;;9.23;88.85;101885.94;5050658;28;20025;-65
2022/06/02 00:23:07;;;;;;;20.00;9.15;;;;;;;9.24;89.35;101892.09;5050643;28;20029;-65
2022/06/02 00:25:46;;;;;;;17.73;9.93;;;;;;;9.30;89.45;101891.44;5050579;28;20060;-64
2022/06/02 00:28:27;;;;;;;20.55;11.90;;;;;;;9.30;89.39;101891.44;5050391;28;20029;-65
2022/06/02 00:31:14;;;;;;;18.50;10.23;;;;;;;9.27;89.31;101897.09;5069261;28;20074;-65
2022/06/02 00:33:52;;;;;;;17.40;9.13;;;;;;;9.22;89.02;101894.91;5069347;28;20029;-65
2022/06/02 00:36:31;;;;;;;14.70;8.55;;;;;;;9.18;88.77;101896.25;5051447;28;20437;-65
2022/06/02 00:38:59;;;;;;;17.17;8.68;;;;;;;9.11;88.40;101890.72;5069274;28;20054;-65
2022/06/02 00:41:33;;;;;;;17.88;9.48;;;;;;;9.11;88.88;101896.03;5069222;28;20032;-65
2022/06/02 00:44:14;;;;;;;19.08;8.45;;;;;;;9.06;89.02;101898.34;5069100;28;20021;-65
2022/06/02 00:46:53;;;;;;;18.80;9.68;;;;;;;9.09;88.82;101899.84;5069265;28;20033;-64
2022/06/02 00:49:56;;;;;;;18.33;9.63;;;;;;;9.06;88.83;101902.84;5069155;28;20028;-65
2022/06/02 00:52:31;;;;;;;17.17;9.35;;;;;;;9.02;89.54;101897.03;5069235;28;20043;-65
2022/06/02 00:58:43;;;;;;;16.83;10.15;;;;;;;8.93;89.43;101897.97;5069486;28;20044;-64
2022/06/02 01:01:18;;;;;;;18.00;9.52;;;;;;;8.84;89.82;101902.44;5030464;28;20496;-64
2022/06/02 01:03:47;;;;;;;19.55;10.38;;;;;;;8.76;90.26;101897.91;5069075;28;20024;-65
2022/06/02 01:06:37;;;;;;;17.80;10.43;;;;;;;8.71;90.47;101897.53;5069066;28;20032;-64
2022/06/02 01:09:25;;;;;;;22.98;11.48;;;;;;;8.68;91.00;101892.53;5069050;28;20032;-65
2022/06/02 01:11:53;;;;;;;19.23;10.10;;;;;;;8.67;91.49;101898.88;5068765;28;20527;-65
2022/06/02 01:14:24;;;;;;;18.92;9.98;;;;;;;8.66;91.55;101897.19;5068599;28;20044;-65
2022/06/02 01:17:40;;;;;;;22.80;11.77;;;;;;;8.65;91.27;101894.69;5068952;28;20095;-64
2022/06/02 01:20:43;;;;;;;20.50;10.70;;;;;;;8.61;91.16;101902.13;4983407;28;20779;-64
2022/06/02 01:23:36;;;;;;;20.83;11.68;;;;;;;8.60;91.68;101902.31;5049777;28;20108;-64
2022/06/02 01:26:23;;;;;;;20.80;10.25;;;;;;;8.60;91.50;101902.31;5049489;28;20024;-64
2022/06/02 01:29:04;;;;;;;21.30;11.55;;;;;;;8.61;91.39;101899.47;5049560;28;20025;-64
2022/06/02 01:31:42;;;;;;;28.13;11.80;;;;;;;8.65;91.50;101900.84;5049570;28;20124;-64
2022/06/02 01:34:16;;;;;;;22.73;12.00;;;;;;;8.64;91.62;101896.50;5049543;28;20017;-65
2022/06/02 01:36:59;;;;;;;20.40;11.45;;;;;;;8.64;91.54;101893.84;5049561;28;20030;-65
2022/06/02 01:39:50;;;;;;;20.58;10.70;;;;;;;8.61;91.18;101896.00;5049083;28;20476;-65
2022/06/02 01:42:49;;;;;;;21.15;10.73;;;;;;;8.53;91.35;101900.25;5049466;28;20380;-65
2022/06/02 01:45:29;;;;;;;23.52;12.15;;;;;;;8.47;91.81;101902.72;5049753;28;21067;-65
2022/06/02 01:48:17;;;;;;;19.48;11.20;;;;;;;8.41;92.07;101898.03;5049526;28;20021;-64
2022/06/02 01:51:13;;;;;;;18.40;9.32;;;;;;;8.40;91.95;101905.16;5049371;28;20017;-65
2022/06/02 01:53:53;;;;;;;22.00;13.27;;;;;;;8.37;91.70;101908.13;5037763;28;20138;-65
2022/06/02 01:56:21;;;;;;;21.77;10.88;;;;;;;8.33;91.14;101907.59;5048921;28;20108;-64
2022/06/02 01:58:50;;;;;;;18.70;9.60;;;;;;;8.29;91.14;101900.91;5031067;28;20672;-65
2022/06/02 02:01:28;;;;;;;21.00;10.73;;;;;;;8.30;91.95;101896.44;5068488;28;20124;-64
2022/06/02 02:04:32;;;;;;;18.60;10.27;;;;;;;8.31;91.75;101893.63;5068450;28;20488;-64
2022/06/02 02:07:07;;;;;;;19.73;11.35;;;;;;;8.26;91.31;101895.91;5068453;28;20036;-64
2022/06/02 02:09:57;;;;;;;20.70;11.68;;;;;;;8.17;91.54;101901.31;5068329;28;20025;-65
2022/06/02 02:12:41;;;;;;;19.08;11.05;;;;;;;8.10;91.75;101893.97;5068333;28;20028;-64
2022/06/02 02:15:20;;;;;;;20.48;12.02;;;;;;;8.03;92.02;101903.53;5068305;28;20051;-65
2022/06/02 02:18:04;;;;;;;21.33;11.55;;;;;;;8.02;92.33;101903.72;5068220;28;20426;-65
2022/06/02 02:20:47;;;;;;;20.55;11.02;;;;;;;7.96;92.13;101899.00;5068193;28;20100;-65
2022/06/02 02:23:38;;;;;;;21.90;12.90;;;;;;;7.91;92.34;101896.78;5068208;28;20110;-65
2022/06/02 02:26:28;;;;;;;20.27;10.25;;;;;;;7.95;91.98;101914.09;5068175;28;20047;-64
2022/06/02 02:29:10;;;;;;;18.33;10.32;;;;;;;7.91;91.60;101912.72;5068182;28;20031;-65
2022/06/02 02:31:51;;;;;;;17.92;9.63;;;;;;;7.87;91.48;101911.38;5068155;28;20040;-65
2022/06/02 02:34:39;;;;;;;16.23;9.57;;;;;;;7.84;91.33;101915.19;5071617;28;20086;-65
2022/06/02 02:37:22;;;;;;;18.92;9.90;;;;;;;7.83;91.39;101916.19;5052557;28;20480;-64
2022/06/02 02:40:18;;;;;;;19.95;10.55;;;;;;;7.84;91.70;101909.03;5052539;28;20039;-64
2022/06/02 02:42:51;;;;;;;19.83;10.65;;;;;;;7.86;91.61;101915.03;5052597;28;20949;-65
2022/06/02 02:45:37;;;;;;;18.00;9.43;;;;;;;7.88;91.56;101916.53;5052436;28;20036;-64
2022/06/02 02:48:30;;;;;;;18.80;10.90;;;;;;;7.90;91.45;101914.56;5052632;28;20028;-64
2022/06/02 02:51:01;;;;;;;19.80;10.85;;;;;;;7.90;91.36;101925.19;5052384;28;20021;-65
2022/06/02 02:53:34;;;;;;;19.50;9.88;;;;;;;7.88;91.41;101921.84;5052052;28;20049;-65
2022/06/02 02:56:24;;;;;;;15.43;9.40;;;;;;;7.88;91.36;101928.97;5052319;28;20484;-64
2022/06/02 02:58:59;;;;;;;17.73;9.60;;;;;;;7.89;91.66;101928.84;5051769;28;20083;-64
2022/06/02 03:01:54;;;;;;;21.13;10.55;;;;;;;7.86;92.04;101931.81;5052241;28;20033;-64
2022/06/02 03:04:57;;;;;;;19.30;10.27;;;;;;;7.86;92.11;101929.16;5040998;28;20057;-64
2022/06/02 03:07:23;;;;;;;18.02;9.55;;;;;;;7.84;92.29;101931.13;5052096;28;20036;-64
2022/06/02 03:09:56;;;;;;;22.10;11.23;;;;;;;7.84;92.89;101940.91;5051881;28;20380;-64
2022/06/02 03:12:36;;;;;;;18.80;10.13;;;;;;;7.82;92.77;101938.41;5051996;28;20041;-65
2022/06/02 03:15:17;;;;;;;19.10;9.93;;;;;;;7.82;92.87;101938.41;5051808;28;20028;-64
2022/06/02 03:17:48;;;;;;;17.70;9.20;;;;;;;7.80;93.16;101939.53;5051539;28;20033;-64
2022/06/02 03:20:26;;;;;;;18.95;10.38;;;;;;;7.75;92.95;101942.63;5051774;28;20480;-64
2022/06/02 03:23:00;;;;;;;17.75;8.88;;;;;;;7.74;92.99;101951.59;5051819;28;20047;-64
2022/06/02 03:25:55;;;;;;;19.42;9.65;;;;;;;7.72;93.06;101953.56;5051801;28;20021;-64
2022/06/02 03:28:52;;;;;;;19.58;10.05;;;;;;;7.70;93.04;101947.56;5051475;28;20079;-64
2022/06/02 03:31:56;;;;;;;19.98;10.73;;;;;;;7.70;93.04;101955.53;5049770;28;20048;-65
2022/06/02 03:34:50;;;;;;;18.42;10.23;;;;;;;7.72;93.04;101961.53;4969666;28;20030;-64
2022/06/02 03:37:36;;;;;;;17.45;9.55;;;;;;;7.71;92.72;101959.03;5049772;28;20044;-65
2022/06/02 03:40:19;;;;;;;17.63;9.80;;;;;;;7.71;93.10;101969.66;5051357;28;20025;-65
2022/06/02 03:42:52;;;;;;;19.90;10.90;;;;;;;7.68;93.53;101970.78;5051501;28;20427;-65
2022/06/02 03:45:59;;;;;;;19.23;10.98;;;;;;;7.71;93.42;101974.97;5050696;28;20039;-65
2022/06/02 03:48:42;;;;;;;17.45;9.48;;;;;;;7.69;93.19;101969.81;5002129;28;20127;-65
2022/06/02 03:51:33;;;;;;;18.48;9.80;;;;;;;7.66;93.11;101978.06;5051189;28;20017;-65
2022/06/02 03:54:05;;;;;;;21.02;10.73;;;;;;;7.65;93.03;101976.38;5050991;28;20501;-64
2022/06/02 03:57:01;;;;;;;20.00;9.77;;;;;;;7.61;93.49;101973.19;5050948;28;20496;-64
2022/06/02 03:59:27;;;;;;;17.10;9.70;;;;;;;7.58;93.37;101978.81;5051078;28;20487;-65
2022/06/02 04:02:00;;;;;;;16.50;8.90;;;;;;;7.57;93.82;101973.63;5050951;28;20032;-65
2022/06/02 04:04:40;;;;;;;17.77;9.38;;;;;;;7.64;93.79;101985.34;5050597;28;20267;-65
2022/06/02 04:07:33;;;;;;;19.45;10.35;;;;;;;7.68;93.78;101976.94;5050555;28;20024;-65
2022/06/02 04:10:26;;;;;;;18.92;10.20;;;;;;;7.75;92.84;101986.94;5032618;28;20384;-65
2022/06/02 04:16:01;;;;;;;19.33;10.55;;;;;;;7.85;92.44;101988.53;5050962;28;20083;-64
2022/06/02 04:18:29;;;;;;;21.30;11.18;;;;;;;7.89;92.55;101986.44;5050718;28;20025;-64
2022/06/02 04:21:24;;;;;;;21.55;11.90;;;;;;;7.96;92.60;101990.16;5050499;28;20495;-64
2022/06/02 04:24:19;;;;;;;19.33;10.82;;;;;;;8.01;92.48;101993.19;5050729;28;20037;-65
2022/06/02 04:27:06;;;;;;;18.35;9.65;;;;;;;8.05;92.12;101996.41;5050368;28;20499;-65
2022/06/02 04:29:59;;;;;;;21.27;10.57;;;;;;;8.06;92.12;101990.06;5050531;28;20383;-64
2022/06/02 04:32:43;;;;;;;18.98;10.75;;;;;;;8.12;92.23;101997.44;5050296;28;20021;-65
2022/06/02 04:35:08;;;;;;;21.58;12.43;;;;;;;8.17;92.22;102000.47;5050380;28;20032;-65
2022/06/02 04:37:43;;;;;;;24.40;12.65;;;;;;;8.24;92.44;101998.88;5050089;28;20174;-64
2022/06/02 04:40:26;;;;;;;23.90;12.55;;;;;;;8.35;92.69;102001.28;5050126;28;20025;-64
2022/06/02 04:43:28;;;;;;;23.60;13.63;;;;;;;8.60;91.64;102006.84;5050349;28;20036;-64
2022/06/02 04:46:17;;;;;;;25.95;12.35;;;;;;;8.67;91.11;101999.06;5050350;28;20060;-65
2022/06/02 04:48:54;;;;;;;21.45;13.10;;;;;;;8.72;91.24;101997.63;5036610;28;20040;-65
2022/06/02 04:51:29;;;;;;;26.38;13.77;;;;;;;8.68;91.59;101996.28;5050088;28;20040;-64
2022/06/02 04:54:04;;;;;;;23.25;13.88;;;;;;;8.75;91.87;102007.97;5049684;28;20036;-65
2022/06/02 04:56:38;;;;;;;24.52;14.48;;;;;;;8.81;92.05;102005.66;5049083;28;20055;-64
2022/06/02 04:59:23;;;;;;;26.33;15.15;;;;;;;8.89;91.90;102013.69;5049778;28;20025;-65
2022/06/02 05:02:18;;;;;;;25.88;14.30;;;;;;;8.95;91.63;102018.38;5049842;28;20039;-64
2022/06/02 05:04:58;;;;;;;24.65;14.55;;;;;;;9.03;91.68;102020.25;5045817;28;20040;-65
2022/06/02 05:08:01;;;;;;;25.35;15.63;;;;;;;9.16;91.59;102020.66;5049904;28;20060;-65
2022/06/02 05:11:05;;;;;;;24.70;13.98;;;;;;;9.31;91.30;102026.22;5049579;28;20036;-65
2022/06/02 05:13:45;;;;;;;25.90;15.07;;;;;;;9.41;90.82;102021.63;5049470;28;20029;-64
2022/06/02 05:16:35;;;;;;;25.52;13.45;;;;;;;9.47;90.69;102023.63;5049610;28;20408;-64
2022/06/02 05:19:29;;;;;;;24.92;16.55;;;;;;;9.53;90.79;102030.16;5049364;28;20036;-65
2022/06/02 05:21:59;;;;;;;27.48;16.95;;;;;;;9.61;91.31;102033.66;5049667;28;20495;-65
2022/06/02 05:24:47;;;;;;;25.63;16.63;;;;;;;9.72;90.81;102029.03;5049360;28;20029;-65
2022/06/02 05:27:46;;;;;;;28.58;16.25;;;;;;;9.81;90.15;102028.91;5049618;28;20021;-65
2022/06/02 05:30:36;;;;;;;30.13;18.50;;;;;;;9.88;90.14;102031.78;5034437;28;20082;-65
2022/06/02 05:33:19;;;;;;;27.15;15.98;;;;;;;9.92;90.33;102030.44;5049277;28;20032;-65
2022/06/02 05:36:04;;;;;;;25.08;16.08;;;;;;;10.06;89.88;102027.13;5049591;28;20078;-65
2022/06/02 05:39:00;;;;;;;25.80;16.05;;;;;;;10.13;89.87;102031.81;5049467;28;20024;-65
2022/06/02 05:42:00;;;;;;;27.60;17.42;;;;;;;10.18;89.93;102040.13;5049564;28;20492;-65
2022/06/02 05:44:47;;;;;;;26.02;16.98;;;;;;;10.22;90.08;102031.66;5049449;28;20032;-64
2022/06/02 05:47:31;;;;;;;28.67;17.85;;;;;;;10.30;90.25;102041.53;5049377;28;20043;-65
2022/06/02 05:50:11;;;;;;;28.40;17.35;;;;;;;10.34;90.21;102034.84;5049231;28;20088;-65
2022/06/02 05:52:43;;;;;;;25.35;16.50;;;;;;;10.40;90.32;102042.22;5049214;28;20083;-65
2022/06/02 05:55:23;;;;;;;31.10;18.05;;;;;;;10.49;90.41;102040.38;5030448;28;20400;-65
2022/06/02 05:58:07;;;;;;;30.30;18.67;;;;;;;10.82;90.65;102035.00;5049353;28;20120;-65
2022/06/02 06:01:05;;;;;;;24.55;16.40;;;;;;;11.54;87.72;102035.78;5048973;28;20025;-65
2022/06/02 06:03:50;;;;;;;29.33;16.40;;;;;;;11.69;87.03;102043.09;5049276;28;20115;-65
2022/06/02 06:06:25;;;;;;;24.33;14.50;;;;;;;11.86;86.23;102050.03;5031304;28;20056;-65
2022/06/02 06:09:02;;;;;;;25.65;15.63;;;;;;;12.18;84.85;102041.00;5052297;28;20492;-65
2022/06/02 06:11:38;;;;;;;23.17;14.75;;;;;;;12.12;84.20;102035.50;5035235;28;20067;-65
2022/06/02 06:14:30;;;;;;;23.27;15.65;;;;;;;11.92;84.61;102045.81;5053343;28;20041;-65
2022/06/02 06:17:21;;;;;;;22.05;13.75;;;;;;;11.81;85.94;102050.50;5021687;28;20056;-65
2022/06/02 06:20:02;;;;;;;25.17;15.07;;;;;;;11.72;86.14;102048.91;5047587;28;20132;-65
2022/06/02 06:22:54;;;;;;;23.23;13.13;;;;;;;11.69;86.45;102054.59;5058387;28;20039;-65
2022/06/02 06:25:50;;;;;;;23.27;14.48;;;;;;;11.65;86.66;102063.13;5071807;28;20043;-65
2022/06/02 06:28:19;;;;;;;22.45;13.10;;;;;;;11.61;86.99;102057.31;5071845;28;20017;-65
2022/06/02 06:30:56;;;;;;;23.58;15.50;;;;;;;11.65;87.19;102055.94;5071800;28;20031;-65
2022/06/02 06:33:46;;;;;;;24.85;14.05;;;;;;;11.69;87.86;102061.81;5071620;28;20024;-65
2022/06/02 06:36:38;;;;;;;22.25;13.68;;;;;;;11.70;86.79;102066.94;5053774;28;20029;-64
2022/06/02 06:39:22;;;;;;;25.27;13.85;;;;;;;11.76;87.27;102065.41;5071444;28;20111;-65
2022/06/02 06:42:02;;;;;;;22.75;12.93;;;;;;;11.84;87.02;102074.25;5053192;28;20544;-65
2022/06/02 06:44:49;;;;;;;23.52;13.30;;;;;;;11.94;86.77;102081.22;5052263;28;20034;-65
2022/06/02 06:47:30;;;;;;;23.23;14.25;;;;;;;12.00;86.43;102076.03;5052310;28;20065;-65
2022/06/02 06:50:11;;;;;;;21.65;13.68;;;;;;;12.07;86.86;102078.81;5051858;28;20532;-64
2022/06/02 06:52:43;;;;;;;21.67;12.90;;;;;;;12.12;85.72;102084.47;5052379;28;20043;-65
2022/06/02 06:55:41;;;;;;;22.33;13.52;;;;;;;12.16;85.69;102088.47;5051996;28;20404;-65
2022/06/02 06:58:28;;;;;;;17.75;11.75;;;;;;;12.27;85.32;102087.22;5071119;28;20044;-65
2022/06/02 07:01:16;;;;;;;20.35;12.15;;;;;;;12.32;85.24;102084.84;5071241;28;20024;-65
2022/06/02 07:03:50;;;;;;;19.45;11.55;;;;;;;12.41;84.03;102089.13;5071117;28;20130;-65
2022/06/02 07:06:42;;;;;;;18.25;10.75;;;;;;;12.49;84.33;102093.59;5071142;28;20029;-65
2022/06/02 07:09:47;;;;;;;21.00;11.70;;;;;;;12.58;83.63;102095.19;5071011;28;20032;-65
2022/06/02 07:15:44;;;;;;;15.50;9.48;;;;;;;12.80;82.50;102100.72;5052590;28;20067;-65
2022/06/02 07:18:52;;;;;;;18.02;10.32;;;;;;;13.05;82.89;102107.50;4970322;28;20038;-65
2022/06/02 07:21:24;;;;;;;17.98;11.10;;;;;;;13.09;80.64;102108.78;4912803;29;20080;-65
2022/06/02 07:24:15;;;;;;;19.60;11.65;;;;;;;13.23;82.40;102109.84;5027708;28;20037;-65
2022/06/02 07:26:57;;;;;;;12.98;7.22;;;;;;;13.26;78.15;102112.19;5051889;28;20075;-65
2022/06/02 07:29:42;;;;;;;13.10;7.35;;;;;;;13.19;76.87;102124.63;5051689;28;20460;-65
2022/06/02 07:32:19;;;;;;;14.95;8.70;;;;;;;13.22;77.44;102131.47;5051439;28;20079;-65
2022/06/02 07:35:04;;;;;;;18.48;10.27;;;;;;;13.27;76.37;102126.41;5056311;28;20028;-65
2022/06/02 07:37:43;;;;;;;14.23;7.20;;;;;;;13.33;73.99;102123.00;5052571;28;20442;-65
2022/06/02 07:40:28;;;;;;;14.75;8.15;;;;;;;13.41;75.68;102117.53;5070462;28;20020;-65
2022/06/02 07:43:17;;;;;;;11.57;7.80;;;;;;;13.50;74.92;102124.50;5070566;28;20047;-65
2022/06/02 07:46:24;;;;;;;21.33;8.45;;;;;;;13.50;73.47;102124.50;5070291;28;20042;-65
2022/06/02 07:48:58;;;;;;;14.52;8.50;;;;;;;13.58;73.68;102129.75;5025373;28;20045;-65
2022/06/02 07:51:38;;;;;;;11.55;7.15;;;;;;;13.69;73.39;102120.41;5050965;28;20066;-64
2022/06/02 07:54:25;;;;;;;14.10;7.25;;;;;;;13.78;72.71;102132.72;5051008;28;20048;-65
2022/06/02 07:57:23;;;;;;;10.77;7.05;;;;;;;13.84;70.61;102123.09;5050950;28;20028;-65
2022/06/02 08:00:02;;;;;;;8.60;5.47;;;;;;;13.91;67.94;102123.16;5006045;28;20041;-65
2022/06/02 08:02:46;;;;;;;12.90;7.22;;;;;;;13.96;68.91;102118.91;5051114;28;20056;-65
2022/06/02 08:05:43;;;;;;;11.10;6.45;;;;;;;14.14;68.99;102121.16;5033106;28;20314;-65
2022/06/02 08:08:46;;;;;;;10.43;5.47;;;;;;;15.90;66.69;102122.22;5050978;28;20033;-65
2022/06/02 08:11:30;;;;;;;10.13;6.95;;;;;;;15.78;63.26;102124.63;5050815;28;20061;-65
2022/06/02 08:14:17;;;;;;;8.40;5.30;;;;;;;15.26;62.88;102130.50;5050789;28;20389;-64
2022/06/02 08:17:16;;;;;;;11.25;5.72;;;;;;;17.33;63.69;102118.44;5050650;28;20041;-65
2022/06/02 08:19:57;;;;;;;10.43;6.03;;;;;;;20.66;55.26;102117.25;5065672;28;20082;-65
2022/06/02 08:22:46;;;;;;;10.98;7.00;;;;;;;22.34;47.49;102119.25;5051580;28;20920;-65
2022/06/02 08:25:14;;;;;;;12.50;6.85;;;;;;;23.47;40.71;102121.84;5020263;28;20131;-66
2022/06/02 08:27:56;;;;;;;15.63;5.63;;;;;;;24.79;43.00;102115.38;5069452;28;20032;-66
2022/06/02 08:30:27;;;;;;;9.93;5.57;;;;;;;25.38;39.04;102119.88;5068990;28;20020;-65
2022/06/02 08:33:20;;;;;;;10.52;6.53;;;;;;;26.03;40.17;102121.22;5069369;28;20028;-65
2022/06/02 08:35:48;;;;;;;13.93;6.28;;;;;;;27.08;35.35;102115.25;5069529;28;20046;-66
2022/06/02 08:38:26;;;;;;;8.32;5.07;;;;;;;27.72;33.14;102121.09;5069607;28;20103;-66
2022/06/02 08:40:54;;;;;;;7.93;6.13;;;;;;;27.85;31.58;102114.19;5069335;28;20833;-66
2022/06/02 08:43:56;;;;;;;10.40;6.35;;;;;;;28.04;35.94;102111.63;5069458;28;20392;-66
2022/06/02 08:46:24;;;;;;;7.60;5.43;;;;;;;27.62;31.40;102118.41;5069073;28;20064;-66
2022/06/02 08:49:04;;;;;;;7.88;5.63;;;;;;;27.92;35.21;102126.47;5069254;28;20025;-65
2022/06/02 08:52:06;;;;;;;9.63;6.20;;;;;;;28.35;33.24;102121.28;5069035;28;20034;-66
2022/06/02 08:54:54;;;;;;;6.82;4.50;;;;;;;28.84;34.01;102128.53;5068874;28;20046;-66
2022/06/02 08:57:57;;;;;;;9.02;5.43;;;;;;;29.26;33.72;102124.28;5051126;28;20397;-66
2022/06/02 09:00:36;;;;;;;9.07;5.25;;;;;;;28.10;31.82;102126.94;5068970;28;20031;-66
2022/06/02 09:03:26;;;;;;;6.32;4.93;;;;;;;25.54;33.55;102136.06;5069085;28;20041;-66
2022/06/02 09:06:13;;;;;;;8.27;5.45;;;;;;;23.42;36.79;102135.38;5068930;28;20391;-66
2022/06/02 09:09:06;;;;;;;7.85;5.20;;;;;;;21.91;40.14;102128.75;5069131;28;20051;-66
2022/06/02 09:11:44;;;;;;;8.35;5.35;;;;;;;20.82;42.11;102132.00;5050738;28;20052;-66
2022/06/02 09:14:40;;;;;;;6.22;5.10;;;;;;;20.21;44.62;102130.41;5068365;28;20024;-65
2022/06/02 09:17:06;;;;;;;8.48;5.63;;;;;;;19.68;45.17;102123.81;5068574;28;20033;-65
2022/06/02 09:19:46;;;;;;;7.72;5.30;;;;;;;19.29;45.91;102120.44;5068851;28;20028;-65
2022/06/02 09:22:14;;;;;;;7.45;5.22;;;;;;;19.16;46.88;102121.41;5068848;28;20539;-66
2022/06/02 09:25:11;;;;;;;9.93;6.55;;;;;;;19.03;47.45;102114.22;5068678;28;20077;-66
2022/06/02 09:28:01;;;;;;;10.27;6.50;;;;;;;18.71;48.81;102118.84;5049246;28;20025;-66
2022/06/02 09:30:51;;;;;;;10.18;6.70;;;;;;;18.22;50.06;102131.22;5031547;28;20040;-66
2022/06/02 09:33:43;;;;;;;7.28;5.80;;;;;;;18.09;49.65;102115.91;5049545;28;20032;-65
2022/06/02 09:36:14;;;;;;;10.50;5.53;;;;;;;18.03;48.27;102126.75;5049535;28;20056;-66
2022/06/02 09:39:13;;;;;;;10.75;6.57;;;;;;;17.85;50.65;102128.28;5031881;28;20069;-65
2022/06/02 09:42:01;;;;;;;10.90;6.03;;;;;;;17.90;50.54;102119.56;5068603;28;20029;-65
2022/06/02 09:44:46;;;;;;;11.60;6.90;;;;;;;17.85;49.94;102122.06;5072741;28;20094;-65
2022/06/02 09:47:40;;;;;;;11.18;7.43;;;;;;;17.71;51.61;102114.00;5072595;28;20039;-66
2022/06/02 09:50:24;;;;;;;11.90;7.63;;;;;;;17.74;51.17;102121.66;5072754;28;20027;-65
2022/06/02 09:53:16;;;;;;;12.23;7.15;;;;;;;17.83;49.97;102113.34;5072740;28;20635;-66
2022/06/02 09:56:27;;;;;;;10.88;6.95;;;;;;;17.96;52.02;102111.41;5032486;28;20052;-66
2022/06/02 09:59:13;;;;;;;12.30;8.30;;;;;;;17.99;51.08;102104.75;5016452;28;20473;-65
2022/06/02 10:02:06;;;;;;;12.20;7.22;;;;;;;18.13;51.09;102110.91;5032506;28;20472;-65
2022/06/02 10:04:53;;;;;;;11.70;7.20;;;;;;;18.17;50.39;102126.47;5013502;28;20044;-65
2022/06/02 10:08:06;;;;;;;10.25;7.13;;;;;;;18.18;50.90;102111.94;5013520;28;20531;-65
2022/06/02 10:10:39;;;;;;;10.55;6.97;;;;;;;18.27;49.70;102114.38;4994667;28;20038;-66
2022/06/02 10:13:05;;;;;;;11.00;7.43;;;;;;;18.17;49.41;102109.44;5013250;28;20048;-66
2022/06/02 10:16:06;;;;;;;11.95;6.93;;;;;;;18.12;49.76;102112.78;5012578;28;20481;-65
2022/06/02 10:18:50;;;;;;;12.52;7.85;;;;;;;18.19;50.05;102107.34;5012681;28;20065;-66
2022/06/02 10:21:33;;;;;;;11.57;8.15;;;;;;;18.18;49.01;102111.94;5012468;28;20061;-65
2022/06/02 10:24:10;;;;;;;12.50;7.43;;;;;;;18.33;49.14;102105.38;5012867;28;20452;-65
2022/06/02 10:27:01;;;;;;;12.43;8.30;;;;;;;18.52;51.33;102109.00;5012684;28;20033;-65
2022/06/02 10:29:35;;;;;;;13.57;7.60;;;;;;;18.73;48.91;102105.94;5013129;28;20172;-65
2022/06/02 10:32:26;;;;;;;11.18;6.45;;;;;;;18.89;49.16;102104.59;5012842;28;20038;-65
2022/06/02 10:35:26;;;;;;;10.15;6.72;;;;;;;18.96;47.84;102099.13;5012568;28;20030;-65
2022/06/02 10:37:51;;;;;;;9.60;6.82;;;;;;;19.09;48.72;102098.16;5012708;28;20026;-65
2022/06/02 10:40:45;;;;;;;9.70;6.03;;;;;;;19.31;48.99;102104.81;5012975;28;20382;-66
2022/06/02 10:43:19;;;;;;;9.30;5.75;;;;;;;19.23;44.56;102100.53;5017113;28;20041;-66
2022/06/02 10:46:12;;;;;;;9.10;6.32;;;;;;;18.85;46.82;102106.06;5031384;28;20037;-66
2022/06/02 10:49:11;;;;;;;12.93;6.65;;;;;;;18.86;49.23;102096.09;5031627;28;20647;-65
2022/06/02 10:52:16;;;;;;;9.50;6.80;;;;;;;18.58;49.47;102102.75;5029024;28;20037;-65
2022/06/02 10:55:03;;;;;;;10.98;7.43;;;;;;;18.51;48.27;102093.84;5059736;28;20044;-66
2022/06/02 10:57:58;;;;;;;8.40;5.93;;;;;;;18.68;47.93;102089.56;5071288;28;20033;-65
2022/06/02 11:00:55;;;;;;;9.50;5.32;;;;;;;18.82;48.01;102087.59;5071393;28;20047;-65
2022/06/02 11:03:42;;;;;;;9.70;5.63;;;;;;;18.75;48.10;102084.94;5070645;28;20028;-65
2022/06/02 11:06:35;;;;;;;10.27;6.72;;;;;;;18.96;47.03;102078.31;5071278;28;20543;-65
2022/06/02 11:09:03;;;;;;;9.70;6.72;;;;;;;18.84;46.13;102080.09;5071308;28;20075;-65
2022/06/02 11:11:53;;;;;;;13.00;7.82;;;;;;;18.72;48.31;102085.34;5071132;28;20031;-69
2022/06/02 11:14:48;;;;;;;12.60;8.00;;;;;;;18.33;48.90;102081.09;5070777;28;20025;-69
2022/06/02 11:17:42;;;;;;;27.58;9.88;;;;;;;18.05;50.26;102076.06;5070337;28;20032;-69
2022/06/02 11:20:17;;;;;;;11.40;7.28;;;;;;;18.11;46.71;102070.63;5034091;28;20036;-69
2022/06/02 11:22:57;;;;;;;13.23;7.47;;;;;;;18.20;47.18;102076.59;5071077;28;20434;-69
2022/06/02 11:25:35;;;;;;;13.95;7.35;;;;;;;18.22;46.93;102076.38;5070848;28;20036;-69
2022/06/02 11:28:00;;;;;;;12.35;7.93;;;;;;;18.28;46.55;102070.09;5070841;28;20090;-69
2022/06/02 11:31:02;;;;;;;11.60;7.07;;;;;;;18.47;47.12;102076.41;5071038;28;20017;-70
2022/06/02 11:33:34;;;;;;;8.88;5.85;;;;;;;18.45;44.79;102076.66;5070555;28;20316;-69
2022/06/02 11:36:18;;;;;;;11.57;6.80;;;;;;;18.62;46.22;102076.91;5070557;28;20035;-70
2022/06/02 11:38:58;;;;;;;8.18;4.68;;;;;;;18.92;47.33;102066.31;5069942;28;20038;-69
2022/06/02 11:41:45;;;;;;;7.53;4.75;;;;;;;19.35;48.01;102070.03;5070183;28;20431;-69
2022/06/02 11:44:15;;;;;;;9.32;5.93;;;;;;;19.58;46.22;102075.56;5070513;28;20100;-69
2022/06/02 11:47:14;;;;;;;8.40;6.00;;;;;;;19.73;47.19;102068.97;5070330;28;20036;-69
2022/06/02 11:50:17;;;;;;;7.57;5.38;;;;;;;20.00;45.07;102070.28;5070505;28;20888;-70
2022/06/02 11:53:01;;;;;;;13.30;6.32;;;;;;;20.25;42.44;102059.28;5069966;28;20482;-69
2022/06/02 11:55:38;;;;;;;11.40;7.07;;;;;;;20.45;46.07;102052.72;5069958;28;20082;-69
2022/06/02 11:58:24;;;;;;;10.55;6.47;;;;;;;20.58;46.00;102060.66;5069304;28;20399;-69
2022/06/02 12:01:21;;;;;;;9.15;6.53;;;;;;;20.72;43.93;102066.69;5069771;28;20025;-69
2022/06/02 12:04:28;;;;;;;11.20;7.13;;;;;;;20.53;45.29;102061.31;5070208;28;20044;-70
2022/06/02 12:07:39;;;;;;;10.98;7.15;;;;;;;19.99;43.76;102054.25;5065373;28;20495;-71
2022/06/02 12:10:34;;;;;;;12.70;7.68;;;;;;;19.29;46.08;102060.09;5050561;28;20117;-69
2022/06/02 12:13:24;;;;;;;12.38;7.70;;;;;;;18.85;43.77;102060.13;5050647;28;20087;-70
2022/06/02 12:16:09;;;;;;;14.98;8.80;;;;;;;18.46;44.71;102051.28;5050595;28;20047;-70
2022/06/02 12:18:57;;;;;;;8.73;6.32;;;;;;;18.54;46.28;102036.66;5049857;28;20031;-71
2022/06/02 12:21:53;;;;;;;9.13;6.30;;;;;;;18.57;45.66;102042.44;5022127;28;20041;-70
2022/06/02 12:24:44;;;;;;;11.77;6.53;;;;;;;18.89;46.21;102031.59;5050641;28;21029;-70
2022/06/02 12:27:29;;;;;;;10.75;6.22;;;;;;;19.08;44.90;102021.63;5050557;28;20036;-70
2022/06/02 12:30:22;;;;;;;9.20;6.28;;;;;;;19.10;43.27;102024.09;5050056;28;20568;-70
2022/06/02 12:33:06;;;;;;;9.38;5.88;;;;;;;19.05;43.95;102025.59;5050579;28;20388;-70
2022/06/02 12:36:12;;;;;;;8.07;5.00;;;;;;;19.11;44.29;102015.78;5050368;28;20025;-69
2022/06/02 12:39:01;;;;;;;8.85;5.35;;;;;;;19.45;43.23;102014.31;5050098;28;20033;-72
2022/06/02 12:42:04;;;;;;;10.90;5.28;;;;;;;19.51;43.65;102011.75;5049607;28;20020;-68
2022/06/02 12:45:05;;;;;;;8.77;4.90;;;;;;;19.61;45.77;102015.56;5050382;28;20039;-68
2022/06/02 12:48:15;;;;;;;12.63;6.20;;;;;;;19.67;44.55;102014.69;5050401;28;20079;-69
2022/06/02 12:50:55;;;;;;;8.80;5.05;;;;;;;19.77;44.67;102010.63;5028997;28;20466;-69
2022/06/02 12:53:57;;;;;;;7.47;5.15;;;;;;;19.86;43.46;102014.66;5050297;28;20031;-68